Mise à jour:  Vendredi, 16 février 2007, 15h58 (UTC+4)
Trajectoire complète du système 04 04 CYCLONE tropical intense CARINA
Date et Heure
en UTC
(soit H+4
à La Réunion)
Longit.


(°Est)
Latitude


(°Sud)
Intensité
Dvorak
analysée
(1.0/8.0)

Type de système
analysé

Pression
minimale
estimée
(hPa)
Vent moyen
sur 10'
maxi estimé
(noeud,km/h)
Rafales
maximales
associées
(noeud,km/h)
22/02/2006 12:00 82.17 9.21 1.5 Zone perturbée 1004 20 kt, 37 km/h 28 kt, 52 km/h
22/02/2006 18:00 82.09 9.71 1.5 Zone perturbée 1003 20 kt, 37 km/h 28 kt, 52 km/h
23/02/2006 00:00 82.02 10.13 2.0 Perturbation tropicale 1001 25 kt, 46 km/h 35 kt, 65 km/h
23/02/2006 06:00 82.01 10.35 2.0 Perturbation tropicale 1000 25 kt, 46 km/h 35 kt, 65 km/h
23/02/2006 12:00 82.02 10.47 2.0 Perturbation tropicale 999 25 kt, 46 km/h 35 kt, 65 km/h
23/02/2006 18:00 81.95 10.95 2.5 DEPRESSION tropicale 998 28 kt, 51 km/h 39 kt, 73 km/h
24/02/2006 00:00 81.64 11.36 2.5 DEPRESSION tropicale 996 30 kt, 55 km/h 42 kt, 78 km/h
24/02/2006 06:00 81.31 11.50 3.0 TEMPETE tropicale moderée 993 37 kt, 68 km/h 52 kt, 96 km/h
24/02/2006 12:00 81.08 11.67 3.0 TEMPETE tropicale moderée 990 40 kt, 74 km/h 56 kt, 104 km/h
24/02/2006 18:00 80.89 11.94 3.5 TEMPETE tropicale moderée 987 45 kt, 83 km/h 63 kt, 117 km/h
25/02/2006 00:00 80.71 12.25 3.5 Forte TEMPETE tropicale 984 50 kt, 92 km/h 70 kt, 130 km/h
25/02/2006 06:00 80.46 12.55 3.5 Forte TEMPETE tropicale 983 50 kt, 92 km/h 70 kt, 130 km/h
25/02/2006 12:00 80.24 12.79 4.0 Forte TEMPETE tropicale 980 55 kt, 101 km/h 77 kt, 143 km/h
25/02/2006 18:00 80.13 12.90 4.0 Forte TEMPETE tropicale 975 60 kt, 111 km/h 84 kt, 156 km/h
26/02/2006 00:00 80.04 13.00 4.0 Forte TEMPETE tropicale 975 60 kt, 111 km/h 84 kt, 156 km/h
26/02/2006 06:00 79.97 13.12 4.5 CYCLONE tropical 970 65 kt, 120 km/h 91 kt, 169 km/h
26/02/2006 12:00 79.97 13.56 4.5 CYCLONE tropical 965 70 kt, 129 km/h 98 kt, 182 km/h
26/02/2006 18:00 79.93 13.97 5.0 CYCLONE tropical 960 75 kt, 138 km/h 105 kt, 195 km/h
27/02/2006 00:00 79.87 14.45 5.0 CYCLONE tropical 960 75 kt, 138 km/h 105 kt, 195 km/h
27/02/2006 06:00 79.76 14.83 5.0 CYCLONE tropical 953 80 kt, 148 km/h 112 kt, 208 km/h
27/02/2006 12:00 79.70 15.40 5.5 CYCLONE tropical 945 85 kt, 157 km/h 119 kt, 221 km/h
27/02/2006 18:00 79.50 15.90 5.5 CYCLONE tropical intense 935 95 kt, 175 km/h 133 kt, 248 km/h
28/02/2006 00:00 78.98 16.25 6.0 CYCLONE tropical intense 928 100 kt, 185 km/h 141 kt, 261 km/h
28/02/2006 06:00 78.60 16.48 6.0 CYCLONE tropical intense 922 105 kt, 194 km/h 148 kt, 274 km/h
28/02/2006 12:00 78.23 16.70 6.5 CYCLONE tropical intense 915 110 kt, 203 km/h 155 kt, 287 km/h
28/02/2006 18:00 78.00 16.83 6.5 CYCLONE tropical intense 915 110 kt, 203 km/h 155 kt, 287 km/h
01/03/2006 00:00 77.76 16.99 6.5 CYCLONE tropical intense 915 110 kt, 203 km/h 155 kt, 287 km/h
01/03/2006 06:00 77.34 17.20 5.5 CYCLONE tropical intense 940 90 kt, 166 km/h 126 kt, 235 km/h
01/03/2006 12:00 76.83 17.41 5.0 CYCLONE tropical 955 75 kt, 138 km/h 105 kt, 195 km/h
01/03/2006 18:00 76.55 17.92 4.5 CYCLONE tropical 970 65 kt, 120 km/h 91 kt, 169 km/h
02/03/2006 00:00 77.44 18.90 4.5 CYCLONE tropical 970 65 kt, 120 km/h 91 kt, 169 km/h
02/03/2006 06:00 77.54 19.42 4.0 Forte TEMPETE tropicale 975 60 kt, 111 km/h 84 kt, 156 km/h
02/03/2006 12:00 77.04 19.48 3.5 Forte TEMPETE tropicale 985 50 kt, 92 km/h 70 kt, 130 km/h
02/03/2006 18:00 77.63 19.16 3.0 TEMPETE tropicale moderée 990 40 kt, 74 km/h 56 kt, 104 km/h
03/03/2006 00:00 78.33 19.06 2.5 TEMPETE tropicale moderée 995 35 kt, 64 km/h 49 kt, 91 km/h
03/03/2006 06:00 78.78 18.97 2.5 DEPRESSION tropicale 998 30 kt, 55 km/h 42 kt, 78 km/h
03/03/2006 12:00 79.00 18.90 2.0 Perturbation tropicale 1000 27 kt, 50 km/h 38 kt, 70 km/h
03/03/2006 18:00 79.20 18.55 2.0 Perturbation tropicale 1001 25 kt, 46 km/h 35 kt, 65 km/h
04/03/2006 00:00 78.96 17.42 2.0 Perturbation tropicale 1001 25 kt, 46 km/h 35 kt, 65 km/h
04/03/2006 06:00 78.72 16.18 2.0 Perturbation tropicale 1002 25 kt, 46 km/h 35 kt, 65 km/h
04/03/2006 12:00 78.42 15.17 1.5 DEPRESSION se comblant 1003 25 kt, 46 km/h 35 kt, 65 km/h
04/03/2006 18:00 77.94 14.65 1.5 DEPRESSION se comblant 1003 25 kt, 46 km/h 35 kt, 65 km/h
05/03/2006 00:00 77.13 13.92 1.5 DEPRESSION se comblant 1003 25 kt, 46 km/h 35 kt, 65 km/h
05/03/2006 06:00 76.26 13.62 1.5 DEPRESSION se comblant 1004 20 kt, 37 km/h 28 kt, 52 km/h
05/03/2006 12:00 75.41 13.47 1.5 DEPRESSION se comblant 1004 20 kt, 37 km/h 28 kt, 52 km/h
05/03/2006 18:00 74.78 13.34 1.5 DEPRESSION se comblant 1005 20 kt, 37 km/h 28 kt, 52 km/h
06/03/2006 00:00 74.07 13.20 1.5 DEPRESSION se comblant 1005 20 kt, 37 km/h 28 kt, 52 km/h
06/03/2006 06:00 73.34 13.06   DEPRESSION se comblant 1006 15 kt, 27 km/h 21 kt, 39 km/h
06/03/2006 12:00 72.68 12.94   DEPRESSION se comblant 1007    
06/03/2006 18:00 72.07 12.83   DEPRESSION se comblant 1007    
07/03/2006 00:00 71.44 12.71   DEPRESSION se comblant 1007    
07/03/2006 06:00 70.82 12.61   DEPRESSION se comblant 1008    
07/03/2006 12:00 70.26 12.55   DEPRESSION se comblant 1008    
07/03/2006 18:00 69.47 12.54   DEPRESSION se comblant 1008    
08/03/2006 00:00 68.57 12.69   DEPRESSION se comblant 1008    
08/03/2006 06:00 67.97 12.79   DEPRESSION se comblant 1009    
08/03/2006 12:00 67.61 13.07   DEPRESSION se comblant 1009    
08/03/2006 18:00 67.03 13.48   DEPRESSION se comblant 1009    
09/03/2006 00:00 66.30 13.99   DEPRESSION se comblant 1009    
09/03/2006 06:00 65.45 14.49   DEPRESSION se comblant 1010    
09/03/2006 12:00 64.48 14.91   DEPRESSION se comblant 1010    
09/03/2006 18:00 63.27 15.31   DEPRESSION se comblant 1010    
10/03/2006 00:00 61.98 15.69   DEPRESSION se comblant 1009    
10/03/2006 06:00 60.80 16.05   DEPRESSION se comblant 1009    
10/03/2006 12:00 59.77 16.45   DEPRESSION se comblant 1009    
10/03/2006 18:00 58.87 16.88   DEPRESSION se comblant 1010    
11/03/2006 00:00 58.17 17.27   DEPRESSION se comblant 1010    
11/03/2006 06:00 57.35 17.75   DEPRESSION se comblant 1010    
Retour